sensor_id;sensor_type;location;lat;lon;timestamp;P1;durP1;ratioP1;P2;durP2;ratioP2
18066;SDS011;9158;51.528;7.192;2023-02-01T00:00:14;20.23;;;7.80;;
18066;SDS011;9158;51.528;7.192;2023-02-01T00:00:45;15.82;;;7.63;;
18066;SDS011;9158;51.528;7.192;2023-02-01T00:01:16;15.50;;;6.97;;
18066;SDS011;9158;51.528;7.192;2023-02-01T00:01:48;12.27;;;7.28;;
18066;SDS011;9158;51.528;7.192;2023-02-01T00:02:19;13.87;;;7.43;;
18066;SDS011;9158;51.528;7.192;2023-02-01T00:02:50;19.37;;;8.53;;
18066;SDS011;9158;51.528;7.192;2023-02-01T00:03:22;19.45;;;6.53;;
18066;SDS011;9158;51.528;7.192;2023-02-01T00:03:52;12.02;;;6.40;;
18066;SDS011;9158;51.528;7.192;2023-02-01T00:04:23;13.33;;;6.40;;
18066;SDS011;9158;51.528;7.192;2023-02-01T00:04:55;9.95;;;6.22;;
18066;SDS011;9158;51.528;7.192;2023-02-01T00:05:26;10.98;;;6.60;;
18066;SDS011;9158;51.528;7.192;2023-02-01T00:05:58;13.93;;;7.82;;
18066;SDS011;9158;51.528;7.192;2023-02-01T00:06:30;15.93;;;6.63;;
18066;SDS011;9158;51.528;7.192;2023-02-01T00:07:01;14.88;;;7.60;;
18066;SDS011;9158;51.528;7.192;2023-02-01T00:07:33;17.27;;;7.38;;
18066;SDS011;9158;51.528;7.192;2023-02-01T00:08:04;13.10;;;6.70;;
18066;SDS011;9158;51.528;7.192;2023-02-01T00:08:35;16.73;;;6.07;;
18066;SDS011;9158;51.528;7.192;2023-02-01T00:09:06;12.00;;;6.70;;
18066;SDS011;9158;51.528;7.192;2023-02-01T00:09:37;12.50;;;6.35;;
18066;SDS011;9158;51.528;7.192;2023-02-01T00:10:09;18.00;;;6.80;;
18066;SDS011;9158;51.528;7.192;2023-02-01T00:10:40;11.10;;;6.53;;
18066;SDS011;9158;51.528;7.192;2023-02-01T00:11:12;10.98;;;6.65;;
18066;SDS011;9158;51.528;7.192;2023-02-01T00:11:43;11.70;;;6.53;;
18066;SDS011;9158;51.528;7.192;2023-02-01T00:12:14;11.25;;;6.40;;
18066;SDS011;9158;51.528;7.192;2023-02-01T00:12:45;11.68;;;6.50;;
18066;SDS011;9158;51.528;7.192;2023-02-01T00:13:17;17.75;;;6.03;;
18066;SDS011;9158;51.528;7.192;2023-02-01T00:13:50;12.25;;;6.00;;
18066;SDS011;9158;51.528;7.192;2023-02-01T00:14:21;17.85;;;6.25;;
18066;SDS011;9158;51.528;7.192;2023-02-01T00:14:53;11.85;;;6.57;;
18066;SDS011;9158;51.528;7.192;2023-02-01T00:15:24;10.87;;;7.03;;
18066;SDS011;9158;51.528;7.192;2023-02-01T00:15:55;11.38;;;6.47;;
18066;SDS011;9158;51.528;7.192;2023-02-01T00:16:33;12.38;;;5.38;;
18066;SDS011;9158;51.528;7.192;2023-02-01T00:17:04;15.10;;;6.88;;
18066;SDS011;9158;51.528;7.192;2023-02-01T00:17:36;13.40;;;6.53;;
18066;SDS011;9158;51.528;7.192;2023-02-01T00:18:08;14.23;;;7.22;;
18066;SDS011;9158;51.528;7.192;2023-02-01T00:18:39;9.85;;;4.82;;
18066;SDS011;9158;51.528;7.192;2023-02-01T00:19:11;8.40;;;5.37;;
18066;SDS011;9158;51.528;7.192;2023-02-01T00:19:45;16.02;;;5.18;;
18066;SDS011;9158;51.528;7.192;2023-02-01T00:20:15;13.13;;;6.00;;
18066;SDS011;9158;51.528;7.192;2023-02-01T00:20:47;12.77;;;5.15;;
18066;SDS011;9158;51.528;7.192;2023-02-01T00:21:18;12.00;;;5.35;;
18066;SDS011;9158;51.528;7.192;2023-02-01T00:21:52;17.05;;;6.78;;
18066;SDS011;9158;51.528;7.192;2023-02-01T00:22:22;11.57;;;6.40;;
18066;SDS011;9158;51.528;7.192;2023-02-01T00:22:54;13.85;;;5.63;;
18066;SDS011;9158;51.528;7.192;2023-02-01T00:23:25;15.53;;;5.73;;
18066;SDS011;9158;51.528;7.192;2023-02-01T00:23:57;12.60;;;5.95;;
18066;SDS011;9158;51.528;7.192;2023-02-01T00:24:28;10.95;;;5.10;;
18066;SDS011;9158;51.528;7.192;2023-02-01T00:25:00;13.75;;;5.82;;
18066;SDS011;9158;51.528;7.192;2023-02-01T00:25:31;13.68;;;5.53;;
18066;SDS011;9158;51.528;7.192;2023-02-01T00:26:02;19.55;;;6.05;;
18066;SDS011;9158;51.528;7.192;2023-02-01T00:26:35;13.90;;;6.60;;
18066;SDS011;9158;51.528;7.192;2023-02-01T00:27:08;10.98;;;6.35;;
18066;SDS011;9158;51.528;7.192;2023-02-01T00:27:39;15.90;;;5.73;;
18066;SDS011;9158;51.528;7.192;2023-02-01T00:28:10;10.25;;;5.20;;
18066;SDS011;9158;51.528;7.192;2023-02-01T00:28:43;9.05;;;5.13;;
18066;SDS011;9158;51.528;7.192;2023-02-01T00:29:15;7.65;;;4.95;;
18066;SDS011;9158;51.528;7.192;2023-02-01T00:29:49;10.15;;;4.82;;
18066;SDS011;9158;51.528;7.192;2023-02-01T00:30:20;12.40;;;5.53;;
18066;SDS011;9158;51.528;7.192;2023-02-01T00:30:55;10.87;;;5.23;;
18066;SDS011;9158;51.528;7.192;2023-02-01T00:31:26;11.23;;;4.90;;
18066;SDS011;9158;51.528;7.192;2023-02-01T00:31:59;11.90;;;4.85;;
18066;SDS011;9158;51.528;7.192;2023-02-01T00:32:29;15.23;;;5.90;;
18066;SDS011;9158;51.528;7.192;2023-02-01T00:33:02;10.25;;;5.43;;
18066;SDS011;9158;51.528;7.192;2023-02-01T00:33:33;14.00;;;5.43;;
18066;SDS011;9158;51.528;7.192;2023-02-01T00:34:04;19.98;;;5.13;;
18066;SDS011;9158;51.528;7.192;2023-02-01T00:34:38;17.13;;;6.15;;
18066;SDS011;9158;51.528;7.192;2023-02-01T00:35:09;15.20;;;6.27;;
18066;SDS011;9158;51.528;7.192;2023-02-01T00:35:41;9.18;;;4.97;;
18066;SDS011;9158;51.528;7.192;2023-02-01T00:36:13;13.50;;;5.80;;
18066;SDS011;9158;51.528;7.192;2023-02-01T00:36:44;11.30;;;4.80;;
18066;SDS011;9158;51.528;7.192;2023-02-01T00:37:15;9.85;;;4.90;;
18066;SDS011;9158;51.528;7.192;2023-02-01T00:37:47;13.77;;;4.97;;
18066;SDS011;9158;51.528;7.192;2023-02-01T00:38:18;13.20;;;6.27;;
18066;SDS011;9158;51.528;7.192;2023-02-01T00:38:49;15.93;;;5.17;;
18066;SDS011;9158;51.528;7.192;2023-02-01T00:39:20;11.65;;;6.60;;
18066;SDS011;9158;51.528;7.192;2023-02-01T00:39:52;11.93;;;5.28;;
18066;SDS011;9158;51.528;7.192;2023-02-01T00:40:25;11.60;;;4.95;;
18066;SDS011;9158;51.528;7.192;2023-02-01T00:41:01;10.55;;;4.68;;
18066;SDS011;9158;51.528;7.192;2023-02-01T00:41:33;9.52;;;3.88;;
18066;SDS011;9158;51.528;7.192;2023-02-01T00:42:05;13.90;;;5.07;;
18066;SDS011;9158;51.528;7.192;2023-02-01T00:42:35;15.27;;;4.70;;
18066;SDS011;9158;51.528;7.192;2023-02-01T00:43:06;11.43;;;4.07;;
18066;SDS011;9158;51.528;7.192;2023-02-01T00:43:39;13.70;;;4.75;;
18066;SDS011;9158;51.528;7.192;2023-02-01T00:44:10;11.25;;;5.20;;
18066;SDS011;9158;51.528;7.192;2023-02-01T00:44:43;9.95;;;5.97;;
18066;SDS011;9158;51.528;7.192;2023-02-01T00:45:14;10.50;;;5.28;;
18066;SDS011;9158;51.528;7.192;2023-02-01T00:45:45;14.35;;;4.75;;
18066;SDS011;9158;51.528;7.192;2023-02-01T00:46:18;9.48;;;3.67;;
18066;SDS011;9158;51.528;7.192;2023-02-01T00:46:50;9.60;;;4.85;;
18066;SDS011;9158;51.528;7.192;2023-02-01T00:47:20;11.03;;;3.63;;
18066;SDS011;9158;51.528;7.192;2023-02-01T00:47:53;12.27;;;3.90;;
18066;SDS011;9158;51.528;7.192;2023-02-01T00:48:25;7.63;;;3.50;;
18066;SDS011;9158;51.528;7.192;2023-02-01T00:48:56;11.60;;;4.10;;
18066;SDS011;9158;51.528;7.192;2023-02-01T00:49:28;9.43;;;3.83;;
18066;SDS011;9158;51.528;7.192;2023-02-01T00:50:00;12.07;;;4.38;;
18066;SDS011;9158;51.528;7.192;2023-02-01T00:50:33;12.82;;;4.78;;
18066;SDS011;9158;51.528;7.192;2023-02-01T00:51:04;8.87;;;3.77;;
18066;SDS011;9158;51.528;7.192;2023-02-01T00:51:36;10.85;;;3.33;;
18066;SDS011;9158;51.528;7.192;2023-02-01T00:52:08;10.73;;;3.58;;
18066;SDS011;9158;51.528;7.192;2023-02-01T00:52:39;10.30;;;4.03;;
18066;SDS011;9158;51.528;7.192;2023-02-01T00:53:10;15.63;;;5.50;;
18066;SDS011;9158;51.528;7.192;2023-02-01T00:53:42;10.80;;;4.57;;
18066;SDS011;9158;51.528;7.192;2023-02-01T00:54:13;18.70;;;4.88;;
18066;SDS011;9158;51.528;7.192;2023-02-01T00:54:44;9.27;;;4.00;;
18066;SDS011;9158;51.528;7.192;2023-02-01T00:55:16;9.85;;;4.38;;
18066;SDS011;9158;51.528;7.192;2023-02-01T00:55:47;8.73;;;3.80;;
18066;SDS011;9158;51.528;7.192;2023-02-01T00:56:18;12.27;;;3.97;;
18066;SDS011;9158;51.528;7.192;2023-02-01T00:56:50;14.77;;;3.80;;
18066;SDS011;9158;51.528;7.192;2023-02-01T00:57:22;8.38;;;3.50;;
18066;SDS011;9158;51.528;7.192;2023-02-01T00:57:53;15.80;;;3.95;;
18066;SDS011;9158;51.528;7.192;2023-02-01T00:58:24;17.63;;;4.57;;
18066;SDS011;9158;51.528;7.192;2023-02-01T00:58:56;11.32;;;4.90;;
18066;SDS011;9158;51.528;7.192;2023-02-01T00:59:28;9.63;;;3.70;;
18066;SDS011;9158;51.528;7.192;2023-02-01T01:00:00;10.63;;;3.70;;
18066;SDS011;9158;51.528;7.192;2023-02-01T01:00:32;12.07;;;5.05;;
18066;SDS011;9158;51.528;7.192;2023-02-01T01:01:04;8.52;;;3.38;;
18066;SDS011;9158;51.528;7.192;2023-02-01T01:01:36;11.68;;;4.15;;
18066;SDS011;9158;51.528;7.192;2023-02-01T01:02:07;9.75;;;3.45;;
18066;SDS011;9158;51.528;7.192;2023-02-01T01:02:41;18.15;;;5.25;;
18066;SDS011;9158;51.528;7.192;2023-02-01T01:03:12;13.32;;;4.95;;
18066;SDS011;9158;51.528;7.192;2023-02-01T01:03:49;11.00;;;4.00;;
18066;SDS011;9158;51.528;7.192;2023-02-01T01:04:22;13.25;;;4.13;;
18066;SDS011;9158;51.528;7.192;2023-02-01T01:04:53;7.47;;;3.40;;
18066;SDS011;9158;51.528;7.192;2023-02-01T01:05:24;11.02;;;3.42;;
18066;SDS011;9158;51.528;7.192;2023-02-01T01:05:57;9.15;;;3.60;;
18066;SDS011;9158;51.528;7.192;2023-02-01T01:06:30;6.75;;;4.05;;
18066;SDS011;9158;51.528;7.192;2023-02-01T01:07:03;8.30;;;3.17;;
18066;SDS011;9158;51.528;7.192;2023-02-01T01:07:34;9.75;;;4.20;;
18066;SDS011;9158;51.528;7.192;2023-02-01T01:08:05;6.93;;;3.40;;
18066;SDS011;9158;51.528;7.192;2023-02-01T01:08:37;13.40;;;4.07;;
18066;SDS011;9158;51.528;7.192;2023-02-01T01:09:09;12.63;;;3.67;;
18066;SDS011;9158;51.528;7.192;2023-02-01T01:09:40;11.00;;;3.40;;
18066;SDS011;9158;51.528;7.192;2023-02-01T01:10:11;14.57;;;3.63;;
18066;SDS011;9158;51.528;7.192;2023-02-01T01:10:43;7.97;;;3.55;;
18066;SDS011;9158;51.528;7.192;2023-02-01T01:11:15;8.60;;;3.30;;
18066;SDS011;9158;51.528;7.192;2023-02-01T01:11:47;16.13;;;4.15;;
18066;SDS011;9158;51.528;7.192;2023-02-01T01:12:21;7.43;;;3.20;;
18066;SDS011;9158;51.528;7.192;2023-02-01T01:12:52;12.33;;;3.40;;
18066;SDS011;9158;51.528;7.192;2023-02-01T01:13:23;10.40;;;3.57;;
18066;SDS011;9158;51.528;7.192;2023-02-01T01:13:55;10.38;;;4.07;;
18066;SDS011;9158;51.528;7.192;2023-02-01T01:14:28;9.85;;;3.80;;
18066;SDS011;9158;51.528;7.192;2023-02-01T01:14:58;11.00;;;4.15;;
18066;SDS011;9158;51.528;7.192;2023-02-01T01:15:31;8.73;;;3.25;;
18066;SDS011;9158;51.528;7.192;2023-02-01T01:16:05;8.52;;;3.15;;
18066;SDS011;9158;51.528;7.192;2023-02-01T01:16:38;8.48;;;3.35;;
18066;SDS011;9158;51.528;7.192;2023-02-01T01:17:09;10.70;;;3.47;;
18066;SDS011;9158;51.528;7.192;2023-02-01T01:17:40;4.07;;;2.83;;
18066;SDS011;9158;51.528;7.192;2023-02-01T01:18:12;12.50;;;4.45;;
18066;SDS011;9158;51.528;7.192;2023-02-01T01:18:43;5.80;;;2.83;;
18066;SDS011;9158;51.528;7.192;2023-02-01T01:19:14;10.88;;;2.65;;
18066;SDS011;9158;51.528;7.192;2023-02-01T01:19:46;7.93;;;3.22;;
18066;SDS011;9158;51.528;7.192;2023-02-01T01:20:17;7.03;;;2.50;;
18066;SDS011;9158;51.528;7.192;2023-02-01T01:20:51;12.15;;;3.63;;
18066;SDS011;9158;51.528;7.192;2023-02-01T01:21:22;9.27;;;2.78;;
18066;SDS011;9158;51.528;7.192;2023-02-01T01:21:54;5.18;;;2.25;;
18066;SDS011;9158;51.528;7.192;2023-02-01T01:22:25;2.55;;;2.00;;
18066;SDS011;9158;51.528;7.192;2023-02-01T01:22:56;9.83;;;3.80;;
18066;SDS011;9158;51.528;7.192;2023-02-01T01:23:27;10.90;;;3.13;;
18066;SDS011;9158;51.528;7.192;2023-02-01T01:23:59;11.98;;;3.35;;
18066;SDS011;9158;51.528;7.192;2023-02-01T01:24:30;8.52;;;3.13;;
18066;SDS011;9158;51.528;7.192;2023-02-01T01:25:01;7.57;;;2.83;;
18066;SDS011;9158;51.528;7.192;2023-02-01T01:25:36;6.85;;;3.08;;
18066;SDS011;9158;51.528;7.192;2023-02-01T01:26:08;14.88;;;3.60;;
18066;SDS011;9158;51.528;7.192;2023-02-01T01:26:40;9.23;;;3.60;;
18066;SDS011;9158;51.528;7.192;2023-02-01T01:27:12;12.57;;;3.50;;
18066;SDS011;9158;51.528;7.192;2023-02-01T01:27:43;10.23;;;3.80;;
18066;SDS011;9158;51.528;7.192;2023-02-01T01:28:14;17.33;;;3.90;;
18066;SDS011;9158;51.528;7.192;2023-02-01T01:28:46;6.72;;;3.00;;
18066;SDS011;9158;51.528;7.192;2023-02-01T01:29:17;9.55;;;3.50;;
18066;SDS011;9158;51.528;7.192;2023-02-01T01:29:48;11.73;;;3.45;;
18066;SDS011;9158;51.528;7.192;2023-02-01T01:30:21;16.63;;;4.00;;
18066;SDS011;9158;51.528;7.192;2023-02-01T01:30:53;14.63;;;6.38;;
18066;SDS011;9158;51.528;7.192;2023-02-01T01:31:24;10.68;;;4.25;;
18066;SDS011;9158;51.528;7.192;2023-02-01T01:31:56;7.57;;;2.45;;
18066;SDS011;9158;51.528;7.192;2023-02-01T01:32:27;5.97;;;2.93;;
18066;SDS011;9158;51.528;7.192;2023-02-01T01:32:58;9.38;;;3.97;;
18066;SDS011;9158;51.528;7.192;2023-02-01T01:33:29;10.70;;;3.40;;
18066;SDS011;9158;51.528;7.192;2023-02-01T01:34:01;10.45;;;3.88;;
18066;SDS011;9158;51.528;7.192;2023-02-01T01:34:32;5.75;;;2.85;;
18066;SDS011;9158;51.528;7.192;2023-02-01T01:35:04;5.35;;;3.03;;
18066;SDS011;9158;51.528;7.192;2023-02-01T01:35:36;13.40;;;3.80;;
18066;SDS011;9158;51.528;7.192;2023-02-01T01:36:07;12.77;;;3.03;;
18066;SDS011;9158;51.528;7.192;2023-02-01T01:36:41;8.55;;;3.20;;
18066;SDS011;9158;51.528;7.192;2023-02-01T01:37:13;8.15;;;2.95;;
18066;SDS011;9158;51.528;7.192;2023-02-01T01:37:44;8.23;;;3.67;;
18066;SDS011;9158;51.528;7.192;2023-02-01T01:38:15;5.30;;;3.42;;
18066;SDS011;9158;51.528;7.192;2023-02-01T01:38:47;10.15;;;3.47;;
18066;SDS011;9158;51.528;7.192;2023-02-01T01:39:18;9.85;;;3.45;;
18066;SDS011;9158;51.528;7.192;2023-02-01T01:39:50;11.40;;;3.22;;
18066;SDS011;9158;51.528;7.192;2023-02-01T01:40:21;11.20;;;3.05;;
18066;SDS011;9158;51.528;7.192;2023-02-01T01:40:52;5.18;;;3.03;;
18066;SDS011;9158;51.528;7.192;2023-02-01T01:41:25;7.72;;;3.22;;
18066;SDS011;9158;51.528;7.192;2023-02-01T01:42:00;12.27;;;3.30;;
18066;SDS011;9158;51.528;7.192;2023-02-01T01:42:36;11.77;;;5.05;;
18066;SDS011;9158;51.528;7.192;2023-02-01T01:43:12;7.95;;;3.33;;
18066;SDS011;9158;51.528;7.192;2023-02-01T01:43:46;10.15;;;2.95;;
18066;SDS011;9158;51.528;7.192;2023-02-01T01:45:31;6.75;;;3.90;;
18066;SDS011;9158;51.528;7.192;2023-02-01T01:46:03;14.07;;;2.78;;
18066;SDS011;9158;51.528;7.192;2023-02-01T01:46:35;11.15;;;3.88;;
18066;SDS011;9158;51.528;7.192;2023-02-01T01:47:10;5.95;;;2.70;;
18066;SDS011;9158;51.528;7.192;2023-02-01T01:47:46;8.52;;;3.47;;
18066;SDS011;9158;51.528;7.192;2023-02-01T01:48:20;5.13;;;2.72;;
18066;SDS011;9158;51.528;7.192;2023-02-01T01:48:58;11.02;;;3.95;;
18066;SDS011;9158;51.528;7.192;2023-02-01T01:49:34;13.95;;;3.67;;
18066;SDS011;9158;51.528;7.192;2023-02-01T01:50:06;12.27;;;3.42;;
18066;SDS011;9158;51.528;7.192;2023-02-01T01:50:41;7.95;;;3.13;;
18066;SDS011;9158;51.528;7.192;2023-02-01T01:51:19;11.65;;;3.13;;
18066;SDS011;9158;51.528;7.192;2023-02-01T01:51:54;6.75;;;2.95;;
18066;SDS011;9158;51.528;7.192;2023-02-01T01:52:29;13.32;;;4.18;;
18066;SDS011;9158;51.528;7.192;2023-02-01T01:53:00;5.88;;;2.70;;
18066;SDS011;9158;51.528;7.192;2023-02-01T01:53:37;8.32;;;3.47;;
18066;SDS011;9158;51.528;7.192;2023-02-01T01:54:13;5.85;;;3.25;;
18066;SDS011;9158;51.528;7.192;2023-02-01T01:54:51;14.40;;;3.20;;
18066;SDS011;9158;51.528;7.192;2023-02-01T01:55:23;8.77;;;3.15;;
18066;SDS011;9158;51.528;7.192;2023-02-01T01:55:56;7.10;;;3.47;;
18066;SDS011;9158;51.528;7.192;2023-02-01T01:56:28;8.90;;;3.42;;
18066;SDS011;9158;51.528;7.192;2023-02-01T01:57:03;5.95;;;3.00;;
18066;SDS011;9158;51.528;7.192;2023-02-01T01:57:37;7.80;;;3.40;;
18066;SDS011;9158;51.528;7.192;2023-02-01T01:58:14;7.15;;;5.20;;
18066;SDS011;9158;51.528;7.192;2023-02-01T01:58:48;7.97;;;3.00;;
18066;SDS011;9158;51.528;7.192;2023-02-01T01:59:19;7.68;;;3.20;;
18066;SDS011;9158;51.528;7.192;2023-02-01T01:59:53;9.20;;;3.35;;
18066;SDS011;9158;51.528;7.192;2023-02-01T02:00:32;12.88;;;3.30;;
18066;SDS011;9158;51.528;7.192;2023-02-01T02:01:03;5.30;;;2.60;;
18066;SDS011;9158;51.528;7.192;2023-02-01T02:01:35;10.18;;;3.47;;
18066;SDS011;9158;51.528;7.192;2023-02-01T02:02:06;10.70;;;3.95;;
18066;SDS011;9158;51.528;7.192;2023-02-01T02:02:38;5.78;;;2.75;;
18066;SDS011;9158;51.528;7.192;2023-02-01T02:03:14;11.48;;;3.70;;
18066;SDS011;9158;51.528;7.192;2023-02-01T02:03:48;9.40;;;4.10;;
18066;SDS011;9158;51.528;7.192;2023-02-01T02:04:21;11.98;;;3.80;;
18066;SDS011;9158;51.528;7.192;2023-02-01T02:04:53;7.65;;;3.72;;
18066;SDS011;9158;51.528;7.192;2023-02-01T02:05:25;8.68;;;3.67;;
18066;SDS011;9158;51.528;7.192;2023-02-01T02:05:57;5.93;;;2.85;;
18066;SDS011;9158;51.528;7.192;2023-02-01T02:06:32;11.23;;;3.50;;
18066;SDS011;9158;51.528;7.192;2023-02-01T02:07:08;7.78;;;2.95;;
18066;SDS011;9158;51.528;7.192;2023-02-01T02:07:43;5.70;;;3.08;;
18066;SDS011;9158;51.528;7.192;2023-02-01T02:08:18;7.50;;;3.28;;
18066;SDS011;9158;51.528;7.192;2023-02-01T02:08:50;12.02;;;3.53;;
18066;SDS011;9158;51.528;7.192;2023-02-01T02:09:21;11.98;;;4.35;;
18066;SDS011;9158;51.528;7.192;2023-02-01T02:09:54;10.35;;;4.18;;
18066;SDS011;9158;51.528;7.192;2023-02-01T02:10:25;13.63;;;3.90;;
18066;SDS011;9158;51.528;7.192;2023-02-01T02:11:18;6.63;;;3.33;;
18066;SDS011;9158;51.528;7.192;2023-02-01T02:11:49;9.82;;;3.08;;
18066;SDS011;9158;51.528;7.192;2023-02-01T02:12:20;13.90;;;6.73;;
18066;SDS011;9158;51.528;7.192;2023-02-01T02:12:51;9.23;;;3.17;;
18066;SDS011;9158;51.528;7.192;2023-02-01T02:13:22;8.23;;;3.30;;
18066;SDS011;9158;51.528;7.192;2023-02-01T02:13:55;7.82;;;3.78;;
18066;SDS011;9158;51.528;7.192;2023-02-01T02:14:28;7.47;;;3.58;;
18066;SDS011;9158;51.528;7.192;2023-02-01T02:15:01;5.78;;;3.05;;
18066;SDS011;9158;51.528;7.192;2023-02-01T02:15:37;8.45;;;3.42;;
18066;SDS011;9158;51.528;7.192;2023-02-01T02:16:21;8.10;;;3.25;;
18066;SDS011;9158;51.528;7.192;2023-02-01T02:18:00;16.27;;;3.67;;
18066;SDS011;9158;51.528;7.192;2023-02-01T02:18:42;13.18;;;3.60;;
18066;SDS011;9158;51.528;7.192;2023-02-01T02:20:31;11.30;;;3.65;;
18066;SDS011;9158;51.528;7.192;2023-02-01T02:21:36;7.88;;;2.90;;
18066;SDS011;9158;51.528;7.192;2023-02-01T02:22:42;10.35;;;3.92;;
18066;SDS011;9158;51.528;7.192;2023-02-01T02:24:41;7.80;;;3.83;;
18066;SDS011;9158;51.528;7.192;2023-02-01T02:25:31;9.48;;;3.30;;
18066;SDS011;9158;51.528;7.192;2023-02-01T02:26:29;6.75;;;3.03;;
18066;SDS011;9158;51.528;7.192;2023-02-01T02:27:11;8.05;;;2.78;;
18066;SDS011;9158;51.528;7.192;2023-02-01T02:27:58;8.18;;;3.90;;
18066;SDS011;9158;51.528;7.192;2023-02-01T02:28:37;6.85;;;2.67;;
18066;SDS011;9158;51.528;7.192;2023-02-01T02:29:49;12.85;;;4.03;;
18066;SDS011;9158;51.528;7.192;2023-02-01T02:30:44;16.98;;;5.82;;
18066;SDS011;9158;51.528;7.192;2023-02-01T02:31:37;5.50;;;3.70;;
18066;SDS011;9158;51.528;7.192;2023-02-01T02:34:28;14.93;;;3.67;;
18066;SDS011;9158;51.528;7.192;2023-02-01T02:35:06;8.43;;;4.03;;
18066;SDS011;9158;51.528;7.192;2023-02-01T02:35:42;9.05;;;3.40;;
18066;SDS011;9158;51.528;7.192;2023-02-01T02:36:25;5.28;;;2.42;;
18066;SDS011;9158;51.528;7.192;2023-02-01T02:37:05;10.23;;;3.50;;
18066;SDS011;9158;51.528;7.192;2023-02-01T02:37:46;8.95;;;3.85;;
18066;SDS011;9158;51.528;7.192;2023-02-01T02:38:25;12.25;;;4.30;;
18066;SDS011;9158;51.528;7.192;2023-02-01T02:39:05;8.48;;;3.38;;
18066;SDS011;9158;51.528;7.192;2023-02-01T02:39:41;6.63;;;3.60;;
18066;SDS011;9158;51.528;7.192;2023-02-01T02:40:20;8.35;;;3.08;;
18066;SDS011;9158;51.528;7.192;2023-02-01T02:41:02;11.75;;;4.20;;
18066;SDS011;9158;51.528;7.192;2023-02-01T02:41:42;7.68;;;3.40;;
18066;SDS011;9158;51.528;7.192;2023-02-01T02:42:38;14.68;;;4.00;;
18066;SDS011;9158;51.528;7.192;2023-02-01T02:43:32;7.22;;;3.10;;
18066;SDS011;9158;51.528;7.192;2023-02-01T02:44:27;8.93;;;3.75;;
18066;SDS011;9158;51.528;7.192;2023-02-01T02:45:28;7.40;;;2.95;;
18066;SDS011;9158;51.528;7.192;2023-02-01T02:46:22;5.03;;;3.10;;
18066;SDS011;9158;51.528;7.192;2023-02-01T02:47:16;7.60;;;4.03;;
18066;SDS011;9158;51.528;7.192;2023-02-01T02:47:56;10.25;;;2.97;;
18066;SDS011;9158;51.528;7.192;2023-02-01T02:48:35;10.85;;;3.10;;
18066;SDS011;9158;51.528;7.192;2023-02-01T02:49:13;16.77;;;3.30;;
18066;SDS011;9158;51.528;7.192;2023-02-01T02:49:51;6.10;;;2.28;;
18066;SDS011;9158;51.528;7.192;2023-02-01T02:50:53;7.80;;;2.85;;
18066;SDS011;9158;51.528;7.192;2023-02-01T02:52:04;7.25;;;3.03;;
18066;SDS011;9158;51.528;7.192;2023-02-01T02:53:00;10.15;;;4.75;;
18066;SDS011;9158;51.528;7.192;2023-02-01T02:53:53;9.40;;;3.15;;
18066;SDS011;9158;51.528;7.192;2023-02-01T02:54:50;7.32;;;2.63;;
18066;SDS011;9158;51.528;7.192;2023-02-01T02:55:24;4.70;;;2.33;;
18066;SDS011;9158;51.528;7.192;2023-02-01T02:55:58;5.65;;;2.85;;
18066;SDS011;9158;51.528;7.192;2023-02-01T02:56:48;7.45;;;3.15;;
18066;SDS011;9158;51.528;7.192;2023-02-01T02:57:40;9.48;;;3.40;;
18066;SDS011;9158;51.528;7.192;2023-02-01T02:58:32;11.82;;;3.03;;
18066;SDS011;9158;51.528;7.192;2023-02-01T02:59:23;9.75;;;3.55;;
18066;SDS011;9158;51.528;7.192;2023-02-01T03:00:16;8.35;;;2.92;;
18066;SDS011;9158;51.528;7.192;2023-02-01T03:01:07;6.93;;;2.88;;
18066;SDS011;9158;51.528;7.192;2023-02-01T03:01:57;4.75;;;2.50;;
18066;SDS011;9158;51.528;7.192;2023-02-01T03:02:47;7.10;;;2.53;;
18066;SDS011;9158;51.528;7.192;2023-02-01T03:03:38;5.53;;;3.65;;
18066;SDS011;9158;51.528;7.192;2023-02-01T03:04:29;8.43;;;2.95;;
18066;SDS011;9158;51.528;7.192;2023-02-01T03:05:01;7.78;;;3.25;;
18066;SDS011;9158;51.528;7.192;2023-02-01T03:05:33;8.23;;;2.17;;
18066;SDS011;9158;51.528;7.192;2023-02-01T03:06:08;16.40;;;3.90;;
18066;SDS011;9158;51.528;7.192;2023-02-01T03:06:46;7.10;;;2.75;;
18066;SDS011;9158;51.528;7.192;2023-02-01T03:08:20;7.88;;;2.85;;
18066;SDS011;9158;51.528;7.192;2023-02-01T03:08:54;10.38;;;2.58;;
18066;SDS011;9158;51.528;7.192;2023-02-01T03:09:30;17.00;;;3.30;;
18066;SDS011;9158;51.528;7.192;2023-02-01T03:10:05;7.57;;;2.47;;
18066;SDS011;9158;51.528;7.192;2023-02-01T03:10:43;14.02;;;2.75;;
18066;SDS011;9158;51.528;7.192;2023-02-01T03:11:21;8.85;;;2.50;;
18066;SDS011;9158;51.528;7.192;2023-02-01T03:11:55;10.02;;;3.05;;
18066;SDS011;9158;51.528;7.192;2023-02-01T03:12:49;12.52;;;3.42;;
18066;SDS011;9158;51.528;7.192;2023-02-01T03:13:31;11.07;;;1.85;;
18066;SDS011;9158;51.528;7.192;2023-02-01T03:14:07;8.52;;;2.88;;
18066;SDS011;9158;51.528;7.192;2023-02-01T03:14:39;10.18;;;2.88;;
18066;SDS011;9158;51.528;7.192;2023-02-01T03:15:14;9.50;;;2.30;;
18066;SDS011;9158;51.528;7.192;2023-02-01T03:15:48;9.13;;;2.70;;
18066;SDS011;9158;51.528;7.192;2023-02-01T03:16:26;5.85;;;2.88;;
18066;SDS011;9158;51.528;7.192;2023-02-01T03:17:03;8.43;;;4.00;;
18066;SDS011;9158;51.528;7.192;2023-02-01T03:17:41;9.40;;;3.00;;
18066;SDS011;9158;51.528;7.192;2023-02-01T03:18:17;14.35;;;2.55;;
18066;SDS011;9158;51.528;7.192;2023-02-01T03:18:54;9.63;;;2.50;;
18066;SDS011;9158;51.528;7.192;2023-02-01T03:19:31;8.02;;;2.55;;
18066;SDS011;9158;51.528;7.192;2023-02-01T03:20:04;8.20;;;2.90;;
18066;SDS011;9158;51.528;7.192;2023-02-01T03:20:43;7.53;;;2.35;;
18066;SDS011;9158;51.528;7.192;2023-02-01T03:21:20;7.93;;;2.65;;
18066;SDS011;9158;51.528;7.192;2023-02-01T03:21:55;12.57;;;3.42;;
18066;SDS011;9158;51.528;7.192;2023-02-01T03:22:30;10.23;;;3.35;;
18066;SDS011;9158;51.528;7.192;2023-02-01T03:23:04;3.92;;;2.15;;
18066;SDS011;9158;51.528;7.192;2023-02-01T03:23:36;8.13;;;2.65;;
18066;SDS011;9158;51.528;7.192;2023-02-01T03:24:10;9.70;;;2.72;;
18066;SDS011;9158;51.528;7.192;2023-02-01T03:24:46;7.53;;;2.95;;
18066;SDS011;9158;51.528;7.192;2023-02-01T03:25:21;11.27;;;2.90;;
18066;SDS011;9158;51.528;7.192;2023-02-01T03:25:56;7.38;;;2.22;;
18066;SDS011;9158;51.528;7.192;2023-02-01T03:26:30;8.55;;;2.92;;
18066;SDS011;9158;51.528;7.192;2023-02-01T03:27:04;9.20;;;2.92;;
18066;SDS011;9158;51.528;7.192;2023-02-01T03:27:40;9.18;;;2.85;;
18066;SDS011;9158;51.528;7.192;2023-02-01T03:28:15;9.18;;;3.92;;
18066;SDS011;9158;51.528;7.192;2023-02-01T03:28:52;6.80;;;3.20;;
18066;SDS011;9158;51.528;7.192;2023-02-01T03:29:29;9.80;;;3.55;;
18066;SDS011;9158;51.528;7.192;2023-02-01T03:30:07;12.93;;;3.42;;
18066;SDS011;9158;51.528;7.192;2023-02-01T03:30:48;9.18;;;2.50;;
18066;SDS011;9158;51.528;7.192;2023-02-01T03:31:20;9.07;;;2.53;;
18066;SDS011;9158;51.528;7.192;2023-02-01T03:31:52;9.40;;;2.95;;
18066;SDS011;9158;51.528;7.192;2023-02-01T03:32:23;8.48;;;2.80;;
18066;SDS011;9158;51.528;7.192;2023-02-01T03:32:55;10.13;;;3.03;;
18066;SDS011;9158;51.528;7.192;2023-02-01T03:33:32;7.30;;;2.95;;
18066;SDS011;9158;51.528;7.192;2023-02-01T03:34:05;3.88;;;2.55;;
18066;SDS011;9158;51.528;7.192;2023-02-01T03:34:38;9.07;;;3.40;;
18066;SDS011;9158;51.528;7.192;2023-02-01T03:35:10;15.80;;;3.70;;
18066;SDS011;9158;51.528;7.192;2023-02-01T03:35:43;11.20;;;3.60;;
18066;SDS011;9158;51.528;7.192;2023-02-01T03:36:20;15.50;;;3.00;;
18066;SDS011;9158;51.528;7.192;2023-02-01T03:36:57;5.65;;;2.50;;
18066;SDS011;9158;51.528;7.192;2023-02-01T03:37:32;10.07;;;2.97;;
18066;SDS011;9158;51.528;7.192;2023-02-01T03:38:06;9.27;;;2.67;;
18066;SDS011;9158;51.528;7.192;2023-02-01T03:38:44;10.77;;;2.80;;
18066;SDS011;9158;51.528;7.192;2023-02-01T03:39:22;12.70;;;3.28;;
18066;SDS011;9158;51.528;7.192;2023-02-01T03:40:01;7.95;;;2.60;;
18066;SDS011;9158;51.528;7.192;2023-02-01T03:40:37;3.85;;;2.03;;
18066;SDS011;9158;51.528;7.192;2023-02-01T03:41:11;9.52;;;2.63;;
18066;SDS011;9158;51.528;7.192;2023-02-01T03:41:47;6.13;;;2.47;;